Time;durP1;ratioP1;P1;durP2;ratioP2;P2;SDS_P1;SDS_P2;PMS_P1;PMS_P2;Temp;Humidity;BMP_temperature;BMP_pressure;BME280_temperature;BME280_humidity;BME280_pressure;Samples;Min_cycle;Max_cycle;Signal;HPM_P1;HPM_P2
2023/02/08 00:01:18;;;;;;;205.47;48.70;;;;;;;-145.18;100.00;60484.78;5081250;28;20274;-69
2023/02/08 00:03:43;;;;;;;199.07;47.20;;;;;;;-145.18;100.00;60484.78;5078285;28;20306;-69
2023/02/08 00:06:10;;;;;;;216.60;48.93;;;;;;;-145.18;100.00;60484.78;5078771;28;20325;-68
2023/02/08 00:08:36;;;;;;;231.10;49.63;;;;;;;-145.18;100.00;60484.78;5070952;28;20500;-69
2023/02/08 00:11:01;;;;;;;226.33;49.53;;;;;;;-145.18;100.00;60484.78;5072672;28;20827;-68
2023/02/08 00:13:27;;;;;;;213.87;48.50;;;;;;;-145.18;100.00;60484.78;5075321;28;20283;-69
2023/02/08 00:15:53;;;;;;;201.40;49.10;;;;;;;-145.18;100.00;60484.78;5072532;28;20025;-69
2023/02/08 00:18:19;;;;;;;219.17;47.67;;;;;;;-145.18;100.00;60484.78;5080281;28;20479;-69
2023/02/08 00:20:45;;;;;;;226.17;48.47;;;;;;;-145.18;100.00;60484.78;5073237;28;20281;-69
2023/02/08 00:23:12;;;;;;;204.07;43.00;;;;;;;-145.18;100.00;60484.78;5087280;28;20020;-69
2023/02/08 00:25:40;;;;;;;218.17;45.57;;;;;;;-145.18;100.00;60484.78;5072702;28;20032;-69
2023/02/08 00:28:07;;;;;;;208.03;44.87;;;;;;;-145.18;100.00;60484.78;5080215;28;20303;-69
2023/02/08 00:30:34;;;;;;;222.70;45.83;;;;;;;-145.18;100.00;60484.78;5072564;28;20282;-69
2023/02/08 00:33:00;;;;;;;211.03;48.30;;;;;;;-145.18;100.00;60484.78;5077404;28;20281;-69
2023/02/08 00:35:26;;;;;;;207.30;45.60;;;;;;;-145.18;100.00;60484.78;5080531;28;20275;-69
2023/02/08 00:37:51;;;;;;;207.57;45.07;;;;;;;-145.18;100.00;60484.78;5076865;28;20301;-69
2023/02/08 00:40:17;;;;;;;204.80;46.27;;;;;;;-145.18;100.00;60484.78;5075797;28;20080;-69
2023/02/08 00:42:42;;;;;;;224.70;46.53;;;;;;;-145.18;100.00;60484.78;5072290;28;20012;-69
2023/02/08 00:45:08;;;;;;;244.17;49.17;;;;;;;-145.18;100.00;60484.78;5072205;28;20029;-69
2023/02/08 00:47:33;;;;;;;237.70;48.70;;;;;;;-145.18;100.00;60484.78;5072309;28;20099;-69
2023/02/08 00:49:58;;;;;;;242.73;47.77;;;;;;;-145.18;100.00;60484.78;5072180;28;20029;-69
2023/02/08 00:52:24;;;;;;;244.20;49.53;;;;;;;-145.18;100.00;60484.78;5071267;28;20487;-68
2023/02/08 00:54:49;;;;;;;241.43;50.23;;;;;;;-145.18;100.00;60484.78;5070215;28;20527;-68
2023/02/08 00:57:15;;;;;;;241.53;52.33;;;;;;;-145.18;100.00;60484.78;5071766;28;20024;-68
2023/02/08 00:59:40;;;;;;;234.23;51.03;;;;;;;-145.18;100.00;60484.78;5084038;28;20376;-68
2023/02/08 01:02:06;;;;;;;244.13;50.87;;;;;;;-145.18;100.00;60484.78;5071696;28;20039;-68
2023/02/08 01:04:31;;;;;;;237.53;50.53;;;;;;;-145.18;100.00;60484.78;5061989;28;20384;-69
2023/02/08 01:06:57;;;;;;;237.07;49.63;;;;;;;-145.18;100.00;60484.78;5051631;28;20037;-69
2023/02/08 01:09:23;;;;;;;245.10;48.77;;;;;;;-145.18;100.00;60484.78;5066793;28;20028;-68
2023/02/08 01:11:49;;;;;;;240.50;48.33;;;;;;;-145.18;100.00;60484.78;5071712;28;20024;-69
2023/02/08 01:14:14;;;;;;;240.63;50.07;;;;;;;-145.18;100.00;60484.78;5071622;28;20273;-68
2023/02/08 01:16:39;;;;;;;252.50;50.13;;;;;;;-145.18;100.00;60484.78;5071529;28;20020;-68
2023/02/08 01:19:05;;;;;;;251.73;50.37;;;;;;;-145.18;100.00;60484.78;5070334;28;20116;-68
2023/02/08 01:21:35;;;;;;;238.13;48.27;;;;;;;-145.18;100.00;60484.78;5068096;28;20017;-68
2023/02/08 01:24:01;;;;;;;244.67;47.63;;;;;;;-145.18;100.00;60484.78;5070411;28;20023;-68
2023/02/08 01:26:27;;;;;;;260.53;49.90;;;;;;;-145.18;100.00;60484.78;5071777;28;20350;-68
2023/02/08 01:28:53;;;;;;;283.23;51.57;;;;;;;-145.18;100.00;60484.78;5071496;28;20425;-68
2023/02/08 01:31:22;;;;;;;288.30;55.93;;;;;;;-145.18;100.00;60484.78;5071799;28;20047;-68
2023/02/08 01:33:48;;;;;;;267.80;54.33;;;;;;;-145.18;100.00;60484.78;5071408;28;20366;-68
2023/02/08 01:36:15;;;;;;;261.37;54.60;;;;;;;-145.18;100.00;60484.78;5078937;28;20373;-68
2023/02/08 01:38:41;;;;;;;267.03;52.37;;;;;;;-145.18;100.00;60484.78;5073215;28;20025;-68
2023/02/08 01:41:10;;;;;;;279.23;52.87;;;;;;;-145.18;100.00;60484.78;5074988;28;20742;-68
2023/02/08 01:43:57;;;;;;;268.30;52.13;;;;;;;-145.18;100.00;60484.78;5076638;28;20301;-68
2023/02/08 01:46:23;;;;;;;267.50;52.27;;;;;;;-145.18;100.00;60484.78;5082601;28;20271;-68
2023/02/08 01:48:49;;;;;;;290.43;54.53;;;;;;;-145.18;100.00;60484.78;5086753;28;20282;-68
2023/02/08 01:51:22;;;;;;;261.53;53.20;;;;;;;-145.18;100.00;60484.78;5071388;28;20134;-68
2023/02/08 01:53:51;;;;;;;272.53;52.57;;;;;;;-145.18;100.00;60484.78;5082146;28;20903;-68
2023/02/08 01:56:26;;;;;;;282.67;51.53;;;;;;;-145.18;100.00;60484.78;5074655;28;20286;-68
2023/02/08 01:58:56;;;;;;;276.00;50.80;;;;;;;-145.18;100.00;60484.78;5077525;28;20305;-68
2023/02/08 02:01:22;;;;;;;265.20;51.13;;;;;;;-145.18;100.00;60484.78;5088177;28;20274;-68
2023/02/08 02:03:48;;;;;;;268.23;52.83;;;;;;;-145.18;100.00;60484.78;5104318;22;20326;-74
2023/02/08 02:06:26;;;;;;;250.33;51.63;;;;;;;-145.18;100.00;60484.78;5070259;28;20370;-73
2023/02/08 02:09:09;;;;;;;257.53;51.13;;;;;;;-145.18;100.00;60484.78;5067762;28;20044;-74
2023/02/08 02:11:36;;;;;;;249.97;50.30;;;;;;;-145.18;100.00;60484.78;5082767;28;20661;-74
2023/02/08 02:14:03;;;;;;;246.03;49.77;;;;;;;-145.18;100.00;60484.78;5079149;28;20292;-74
2023/02/08 02:16:28;;;;;;;268.03;50.23;;;;;;;-145.18;100.00;60484.78;5070626;28;20025;-74
2023/02/08 02:18:53;;;;;;;251.47;49.70;;;;;;;-145.18;100.00;60484.78;5071851;28;20684;-73
2023/02/08 02:21:33;;;;;;;273.73;49.20;;;;;;;-145.18;100.00;60484.78;5078981;28;20024;-73
2023/02/08 02:24:24;;;;;;;263.90;50.63;;;;;;;-145.18;100.00;60484.78;5073028;28;20032;-73
2023/02/08 02:27:11;;;;;;;241.35;52.03;;;;;;;-145.18;100.00;60484.78;5070934;28;20275;-74
2023/02/08 02:30:11;;;;;;;248.23;50.80;;;;;;;-145.18;100.00;60484.78;5087054;28;20028;-74
2023/02/08 02:32:39;;;;;;;242.60;48.80;;;;;;;-145.18;100.00;60484.78;5078541;28;20286;-73
2023/02/08 02:35:52;;;;;;;238.00;48.73;;;;;;;-145.18;100.00;60484.78;5078701;28;20777;-73
2023/02/08 02:38:48;;;;;;;273.07;53.53;;;;;;;-145.18;100.00;60484.78;5076233;28;20290;-73
2023/02/08 02:44:32;;;;;;;252.00;48.93;;;;;;;-145.18;100.00;60484.78;5085916;28;20265;-74
2023/02/08 02:47:04;;;;;;;246.60;49.60;;;;;;;-145.18;100.00;60484.78;5066240;28;20271;-74
2023/02/08 02:49:34;;;;;;;240.27;49.93;;;;;;;-145.18;100.00;60484.78;5079111;28;20282;-73
2023/02/08 02:52:13;;;;;;;246.03;50.00;;;;;;;-145.18;100.00;60484.78;5085088;28;20334;-73
2023/02/08 02:55:11;;;;;;;261.17;50.93;;;;;;;-145.18;100.00;60484.78;5073304;28;20287;-74
2023/02/08 02:57:40;;;;;;;247.17;49.90;;;;;;;-145.18;100.00;60484.78;5073642;28;20769;-73
2023/02/08 03:00:10;;;;;;;243.03;49.93;;;;;;;-145.18;100.00;60484.78;5074243;28;20263;-73
2023/02/08 03:02:35;;;;;;;247.97;50.80;;;;;;;-145.18;100.00;60484.78;5073793;28;20267;-74
2023/02/08 03:05:00;;;;;;;259.77;52.30;;;;;;;-145.18;100.00;60484.78;5073976;28;20266;-74
2023/02/08 03:07:42;;;;;;;256.13;51.37;;;;;;;-145.18;100.00;60484.78;5073791;28;20108;-74
2023/02/08 03:10:16;;;;;;;275.70;51.20;;;;;;;-145.18;100.00;60484.78;5072586;28;20028;-73
2023/02/08 03:12:59;;;;;;;292.93;53.70;;;;;;;-145.18;100.00;60484.78;5073680;28;20075;-73
2023/02/08 03:16:06;;;;;;;305.07;55.70;;;;;;;-145.18;100.00;60484.78;5073447;28;20371;-73
2023/02/08 03:18:49;;;;;;;273.40;51.67;;;;;;;-145.18;100.00;60484.78;5072991;28;20270;-74
2023/02/08 03:21:29;;;;;;;255.10;50.93;;;;;;;-145.18;100.00;60484.78;5059629;28;20750;-70
2023/02/08 03:24:11;;;;;;;290.40;52.20;;;;;;;-145.18;100.00;60484.78;5053734;28;20323;-70
2023/02/08 03:26:55;;;;;;;;;;;;;;;-145.18;100.00;60484.78;5072826;28;20270;-69
2023/02/08 03:29:42;;;;;;;278.03;50.17;;;;;;;-145.18;100.00;60484.78;5073624;28;20364;-69
2023/02/08 03:32:14;;;;;;;277.10;51.83;;;;;;;-145.18;100.00;60484.78;5073556;28;20283;-69
2023/02/08 03:34:52;;;;;;;;;;;;;;;-145.18;100.00;60484.78;5073393;28;20258;-69
2023/02/08 03:37:25;;;;;;;226.70;43.07;;;;;;;-145.18;100.00;60484.78;5068274;28;19912;-69
2023/02/08 03:39:54;;;;;;;213.20;40.63;;;;;;;-145.18;100.00;60484.78;5072231;28;20348;-69
2023/02/08 03:42:24;;;;;;;216.90;39.53;;;;;;;-145.18;100.00;60484.78;5073340;28;20665;-70
2023/02/08 03:44:58;;;;;;;200.10;41.90;;;;;;;-145.18;100.00;60484.78;5072676;28;20334;-69
2023/02/08 03:47:27;;;;;;;204.07;40.50;;;;;;;-145.18;100.00;60484.78;5071912;28;20294;-70
2023/02/08 03:49:57;;;;;;;216.03;44.03;;;;;;;-145.18;100.00;60484.78;5072986;28;20742;-69
2023/02/08 03:52:24;;;;;;;233.70;46.43;;;;;;;-145.18;100.00;60484.78;5072859;28;20286;-70
2023/02/08 03:54:59;;;;;;;226.53;48.53;;;;;;;-145.18;100.00;60484.78;5072093;28;20279;-69
2023/02/08 03:57:33;;;;;;;231.40;49.23;;;;;;;-145.18;100.00;60484.78;5072299;28;20777;-69
2023/02/08 04:00:07;;;;;;;239.20;50.33;;;;;;;-145.18;100.00;60484.78;5091964;28;20266;-69
2023/02/08 04:02:36;;;;;;;245.83;48.87;;;;;;;-145.18;100.00;60484.78;5066227;28;20274;-70
2023/02/08 04:05:03;;;;;;;234.97;49.20;;;;;;;-145.18;100.00;60484.78;5085149;28;20270;-69
2023/02/08 04:07:29;;;;;;;241.20;50.30;;;;;;;-145.18;100.00;60484.78;5082996;28;20278;-69
2023/02/08 04:09:54;;;;;;;239.00;51.13;;;;;;;-145.18;100.00;60484.78;5073528;28;20771;-69
2023/02/08 04:12:19;;;;;;;244.87;49.37;;;;;;;-145.18;100.00;60484.78;5089335;28;20502;-69
2023/02/08 04:14:45;;;;;;;266.07;52.73;;;;;;;-145.18;100.00;60484.78;5080559;28;20043;-70
2023/02/08 04:17:10;;;;;;;246.03;52.07;;;;;;;-145.18;100.00;60484.78;5078928;28;20035;-69
2023/02/08 04:19:35;;;;;;;251.97;52.37;;;;;;;-145.18;100.00;60484.78;5072221;28;20032;-70
2023/02/08 04:22:01;;;;;;;267.77;56.07;;;;;;;-145.18;100.00;60484.78;5071075;28;20021;-70
2023/02/08 04:24:26;;;;;;;276.17;56.63;;;;;;;-145.18;100.00;60484.78;5070938;28;20035;-70
2023/02/08 04:26:52;;;;;;;264.57;54.43;;;;;;;-145.18;100.00;60484.78;5072580;28;20020;-71
2023/02/08 04:29:17;;;;;;;267.63;57.50;;;;;;;-145.18;100.00;60484.78;5076544;28;20027;-69
2023/02/08 04:31:42;;;;;;;268.93;57.33;;;;;;;-145.18;100.00;60484.78;5088642;28;20039;-69
2023/02/08 04:34:08;;;;;;;277.63;56.57;;;;;;;-145.18;100.00;60484.78;5075867;28;20028;-70
2023/02/08 04:36:33;;;;;;;253.40;54.67;;;;;;;-145.18;100.00;60484.78;5073049;28;20032;-69
2023/02/08 04:38:58;;;;;;;253.03;53.40;;;;;;;-145.18;100.00;60484.78;5081022;28;20028;-70
2023/02/08 04:41:24;;;;;;;235.70;51.20;;;;;;;-145.18;100.00;60484.78;5082063;28;20617;-69
2023/02/08 04:43:49;;;;;;;247.90;50.60;;;;;;;-145.18;100.00;60484.78;5084522;28;20031;-69
2023/02/08 04:46:15;;;;;;;265.77;49.27;;;;;;;-145.18;100.00;60484.78;5079869;28;20028;-69
2023/02/08 04:48:40;;;;;;;251.87;51.40;;;;;;;-145.18;100.00;60484.78;5071406;28;20480;-69
2023/02/08 04:51:05;;;;;;;255.70;49.10;;;;;;;-145.18;100.00;60484.78;5087741;28;20032;-69
2023/02/08 04:53:31;;;;;;;236.77;51.53;;;;;;;-145.18;100.00;60484.78;5076717;28;20104;-69
2023/02/08 04:55:56;;;;;;;233.20;47.37;;;;;;;-145.18;100.00;60484.78;5070887;28;20020;-69
2023/02/08 04:58:22;;;;;;;258.10;52.57;;;;;;;-145.18;100.00;60484.78;5073716;28;20388;-69
2023/02/08 05:00:47;;;;;;;240.23;52.70;;;;;;;-145.18;100.00;60484.78;5090782;28;20035;-70
2023/02/08 05:03:13;;;;;;;262.27;53.47;;;;;;;-145.18;100.00;60484.78;5089876;28;20028;-69
2023/02/08 05:05:39;;;;;;;250.20;52.20;;;;;;;-145.18;100.00;60484.78;5088461;28;20036;-70
2023/02/08 05:08:04;;;;;;;240.40;52.23;;;;;;;-145.18;100.00;60484.78;5071004;28;20279;-69
2023/02/08 05:10:30;;;;;;;247.77;51.87;;;;;;;-145.18;100.00;60484.78;5077891;28;20024;-69
2023/02/08 05:12:55;;;;;;;248.13;52.90;;;;;;;-145.18;100.00;60484.78;5079145;28;20539;-69
2023/02/08 05:15:21;;;;;;;251.33;53.90;;;;;;;-145.18;100.00;60484.78;5081426;28;20017;-69
2023/02/08 05:17:46;;;;;;;268.87;56.17;;;;;;;-145.18;100.00;60484.78;5070990;28;20028;-69
2023/02/08 05:20:12;;;;;;;286.60;57.57;;;;;;;-145.18;100.00;60484.78;5076846;28;20102;-69
2023/02/08 05:22:38;;;;;;;258.23;57.50;;;;;;;-145.18;100.00;60484.78;5090336;28;20027;-70
2023/02/08 05:25:04;;;;;;;291.40;59.50;;;;;;;-145.18;100.00;60484.78;5078773;28;20262;-69
2023/02/08 05:27:29;;;;;;;272.83;56.27;;;;;;;-145.18;100.00;60484.78;5072474;28;20484;-69
2023/02/08 05:29:54;;;;;;;266.50;58.37;;;;;;;-145.18;100.00;60484.78;5077576;28;20032;-70
2023/02/08 05:32:20;;;;;;;280.20;56.30;;;;;;;-145.18;100.00;60484.78;5074245;28;20472;-71
2023/02/08 05:34:46;;;;;;;274.97;59.43;;;;;;;-145.18;100.00;60484.78;5079654;28;20029;-70
2023/02/08 05:37:12;;;;;;;259.27;58.37;;;;;;;-145.18;100.00;60484.78;5070721;28;20064;-71
2023/02/08 05:39:38;;;;;;;261.47;57.33;;;;;;;-145.18;100.00;60484.78;5078772;28;20292;-70
2023/02/08 05:42:04;;;;;;;291.87;71.20;;;;;;;-145.18;100.00;60484.78;5086034;28;20274;-70
2023/02/08 05:44:29;;;;;;;277.17;66.40;;;;;;;-145.18;100.00;60484.78;5082960;28;20032;-71
2023/02/08 05:46:54;;;;;;;277.40;63.63;;;;;;;-145.18;100.00;60484.78;5076714;28;20078;-70
2023/02/08 05:49:20;;;;;;;270.67;60.43;;;;;;;-145.18;100.00;60484.78;5074331;28;20023;-70
2023/02/08 05:51:45;;;;;;;259.47;62.50;;;;;;;-145.18;100.00;60484.78;5084690;28;20032;-70
2023/02/08 05:54:11;;;;;;;271.17;60.87;;;;;;;-145.18;100.00;60484.78;5085061;28;20060;-70
2023/02/08 05:56:36;;;;;;;256.13;60.90;;;;;;;-145.18;100.00;60484.78;5078145;28;20023;-70
2023/02/08 05:59:02;;;;;;;271.37;59.97;;;;;;;-145.18;100.00;60484.78;5071712;28;20103;-70
2023/02/08 06:01:28;;;;;;;253.83;58.80;;;;;;;-145.18;100.00;60484.78;5080238;28;20029;-71
2023/02/08 06:03:53;;;;;;;277.97;60.03;;;;;;;-145.18;100.00;60484.78;5080827;28;20664;-70
2023/02/08 06:06:20;;;;;;;268.73;55.70;;;;;;;-145.18;100.00;60484.78;5077254;28;20494;-71
2023/02/08 06:08:46;;;;;;;259.17;54.73;;;;;;;-145.18;100.00;60484.78;5081085;28;20032;-70
2023/02/08 06:11:12;;;;;;;260.37;50.67;;;;;;;-145.18;100.00;60484.78;5070822;28;20643;-72
2023/02/08 06:13:38;;;;;;;256.30;49.90;;;;;;;-145.18;100.00;60484.78;5077404;28;20028;-72
2023/02/08 06:16:04;;;;;;;233.53;48.43;;;;;;;-145.18;100.00;60484.78;5076295;28;20097;-70
2023/02/08 06:18:29;;;;;;;228.73;49.40;;;;;;;-145.18;100.00;60484.78;5073511;28;20801;-70
2023/02/08 06:20:55;;;;;;;246.93;53.73;;;;;;;-145.18;100.00;60484.78;5068830;28;20275;-71
2023/02/08 06:23:21;;;;;;;242.87;51.60;;;;;;;-145.18;100.00;60484.78;5064836;28;20078;-71
2023/02/08 06:25:47;;;;;;;247.10;53.63;;;;;;;-145.18;100.00;60484.78;5067848;28;20028;-72
2023/02/08 06:28:12;;;;;;;243.13;51.13;;;;;;;-145.18;100.00;60484.78;5074438;28;20258;-70
2023/02/08 06:30:38;;;;;;;252.80;54.53;;;;;;;-145.18;100.00;60484.78;5074440;28;20024;-71
2023/02/08 06:33:04;;;;;;;250.27;56.53;;;;;;;-145.18;100.00;60484.78;5074182;28;20028;-70
2023/02/08 06:35:29;;;;;;;243.87;51.80;;;;;;;-145.18;100.00;60484.78;5073455;28;20036;-71
2023/02/08 06:37:55;;;;;;;225.90;48.17;;;;;;;-145.18;100.00;60484.78;5073017;28;20656;-70
2023/02/08 06:40:20;;;;;;;200.20;45.60;;;;;;;-145.18;100.00;60484.78;5072592;28;20081;-71
2023/02/08 06:42:49;;;;;;;196.10;44.73;;;;;;;-145.18;100.00;60484.78;5071962;28;20430;-71
2023/02/08 06:45:15;;;;;;;185.47;42.97;;;;;;;-145.18;100.00;60484.78;5074246;28;20025;-71
2023/02/08 06:47:40;;;;;;;184.50;41.70;;;;;;;-145.18;100.00;60484.78;5074188;28;20336;-70
2023/02/08 06:50:06;;;;;;;177.63;40.27;;;;;;;-145.18;100.00;60484.78;5074414;28;20060;-71
2023/02/08 06:52:32;;;;;;;175.77;42.10;;;;;;;-145.18;100.00;60484.78;5071748;28;20075;-70
2023/02/08 06:54:57;;;;;;;159.57;40.53;;;;;;;-145.18;100.00;60484.78;5072729;28;20028;-70
2023/02/08 06:57:23;;;;;;;162.23;37.77;;;;;;;-145.18;100.00;60484.78;5073971;28;20495;-70
2023/02/08 06:59:48;;;;;;;172.23;42.17;;;;;;;-145.18;100.00;60484.78;5073968;28;20026;-70
2023/02/08 07:02:16;;;;;;;165.30;42.27;;;;;;;-145.18;100.00;60484.78;5072870;28;20020;-70
2023/02/08 07:04:42;;;;;;;167.73;41.77;;;;;;;-145.18;100.00;60484.78;5074276;28;20408;-70
2023/02/08 07:07:08;;;;;;;173.73;43.17;;;;;;;-145.18;100.00;60484.78;5073729;28;20271;-70
2023/02/08 07:09:35;;;;;;;177.77;46.20;;;;;;;-145.18;100.00;60484.78;5072970;28;20102;-71
2023/02/08 07:12:03;;;;;;;169.00;46.33;;;;;;;-145.18;100.00;60484.78;5072434;28;20487;-71
2023/02/08 07:14:30;;;;;;;197.80;47.80;;;;;;;-145.18;100.00;60484.78;5073157;28;20267;-70
2023/02/08 07:16:55;;;;;;;183.53;47.43;;;;;;;-145.18;100.00;60484.78;5073872;28;20752;-70
2023/02/08 07:19:20;;;;;;;169.47;46.03;;;;;;;-145.18;100.00;60484.78;5073615;28;20365;-70
2023/02/08 07:21:46;;;;;;;179.00;46.67;;;;;;;-145.18;100.00;60484.78;5068790;28;20101;-71
2023/02/08 07:24:11;;;;;;;182.30;47.00;;;;;;;-145.18;100.00;60484.78;5055293;28;20017;-71
2023/02/08 07:26:37;;;;;;;176.80;45.83;;;;;;;-145.18;100.00;60484.78;5071849;28;20031;-70
2023/02/08 07:29:02;;;;;;;173.20;48.00;;;;;;;-145.18;100.00;60484.78;5073402;28;20085;-70
2023/02/08 07:31:27;;;;;;;161.10;41.37;;;;;;;-145.18;100.00;60484.78;5073601;28;20020;-71
2023/02/08 07:33:53;;;;;;;162.40;42.47;;;;;;;-145.18;100.00;60484.78;5073575;28;20020;-72
2023/02/08 07:36:18;;;;;;;138.33;38.37;;;;;;;-145.18;100.00;60484.78;5073547;28;20024;-70
2023/02/08 07:38:43;;;;;;;110.60;31.50;;;;;;;-145.18;100.00;60484.78;5071900;28;20024;-70
2023/02/08 07:41:11;;;;;;;64.53;20.77;;;;;;;-145.18;100.00;60484.78;5071834;28;20108;-71
2023/02/08 07:43:38;;;;;;;75.50;24.87;;;;;;;-145.18;100.00;60484.78;5073126;28;20585;-71
2023/02/08 07:46:09;;;;;;;67.80;23.97;;;;;;;-145.18;100.00;60484.78;5073339;28;20741;-71
2023/02/08 07:48:35;;;;;;;73.87;26.90;;;;;;;-145.18;100.00;60484.78;5072968;28;20024;-71
2023/02/08 07:51:01;;;;;;;75.07;29.27;;;;;;;-145.18;100.00;60484.78;5072901;28;20027;-71
2023/02/08 07:53:27;;;;;;;77.03;29.70;;;;;;;-145.18;100.00;60484.78;5073036;28;20024;-71
2023/02/08 07:55:52;;;;;;;68.63;30.20;;;;;;;-145.18;100.00;60484.78;5070797;28;20036;-71
2023/02/08 07:58:18;;;;;;;56.40;25.40;;;;;;;-145.18;100.00;60484.78;5072508;28;20046;-71
2023/02/08 08:00:43;;;;;;;50.40;22.70;;;;;;;-145.18;100.00;60484.78;5072989;28;20098;-71
2023/02/08 08:03:09;;;;;;;48.13;21.47;;;;;;;-145.18;100.00;60484.78;5069629;28;20615;-71
2023/02/08 08:05:34;;;;;;;41.20;18.80;;;;;;;-145.18;100.00;60484.78;5069464;28;20052;-72
2023/02/08 08:07:59;;;;;;;36.47;18.17;;;;;;;-145.18;100.00;60484.78;5068539;28;20033;-71
2023/02/08 08:10:25;;;;;;;35.60;17.00;;;;;;;-145.18;100.00;60484.78;5070297;28;20060;-72
2023/02/08 08:12:50;;;;;;;28.63;13.83;;;;;;;-145.18;100.00;60484.78;5068423;28;20028;-72
2023/02/08 08:15:16;;;;;;;31.10;15.37;;;;;;;-145.18;100.00;60484.78;5069012;28;20820;-71
2023/02/08 08:17:42;;;;;;;23.17;11.17;;;;;;;-145.18;100.00;60484.78;5070186;28;20024;-72
2023/02/08 08:20:09;;;;;;;30.50;13.57;;;;;;;-145.18;100.00;60484.78;5072302;28;20027;-71
2023/02/08 08:22:34;;;;;;;28.53;14.00;;;;;;;-145.18;100.00;60484.78;5072503;28;20013;-72
2023/02/08 08:25:00;;;;;;;25.33;11.77;;;;;;;-145.18;100.00;60484.78;5070756;28;20035;-71
2023/02/08 08:27:25;;;;;;;25.13;12.37;;;;;;;-145.18;100.00;60484.78;5072464;28;20031;-72
2023/02/08 08:29:50;;;;;;;19.87;9.23;;;;;;;-145.18;100.00;60484.78;5053683;28;20028;-73
2023/02/08 08:32:16;;;;;;;27.37;13.43;;;;;;;-145.18;100.00;60484.78;5070325;28;20036;-71
2023/02/08 08:34:42;;;;;;;22.77;10.87;;;;;;;-145.18;100.00;60484.78;5071728;28;20409;-71
2023/02/08 08:37:08;;;;;;;21.03;10.40;;;;;;;-145.18;100.00;60484.78;5070747;28;20487;-72
2023/02/08 08:39:34;;;;;;;26.20;12.43;;;;;;;-145.18;100.00;60484.78;5070887;28;20036;-73
2023/02/08 08:42:02;;;;;;;22.67;11.37;;;;;;;-145.18;100.00;60484.78;5071153;28;20392;-72
2023/02/08 08:44:28;;;;;;;28.47;13.80;;;;;;;-145.18;100.00;60484.78;5072143;28;20024;-72
2023/02/08 08:46:55;;;;;;;22.13;11.50;;;;;;;-145.18;100.00;60484.78;5071932;28;20070;-72
2023/02/08 08:49:22;;;;;;;26.30;13.30;;;;;;;-145.18;100.00;60484.78;5069784;28;20029;-72
2023/02/08 08:51:48;;;;;;;22.67;12.47;;;;;;;-145.18;100.00;60484.78;5069308;28;20445;-72
2023/02/08 08:54:13;;;;;;;26.00;13.47;;;;;;;-145.18;100.00;60484.78;5070920;28;20060;-73
2023/02/08 08:56:39;;;;;;;23.53;11.97;;;;;;;-145.18;100.00;60484.78;5053911;28;20557;-72
2023/02/08 08:59:04;;;;;;;26.63;12.73;;;;;;;-145.18;100.00;60484.78;5072000;28;20091;-72
2023/02/08 09:01:30;;;;;;;25.00;12.07;;;;;;;-145.18;100.00;60484.78;5068844;28;20040;-72
2023/02/08 09:03:55;;;;;;;27.77;13.03;;;;;;;-145.18;100.00;60484.78;5069359;28;20492;-73
2023/02/08 09:06:20;;;;;;;23.83;12.37;;;;;;;-145.18;100.00;60484.78;5069791;28;20028;-72
2023/02/08 09:08:46;;;;;;;23.00;12.60;;;;;;;-145.18;100.00;60484.78;5070889;28;20027;-71
2023/02/08 09:11:14;;;;;;;28.83;14.00;;;;;;;-145.18;100.00;60484.78;5070590;28;20035;-72
2023/02/08 09:13:40;;;;;;;26.37;13.87;;;;;;;-145.18;100.00;60484.78;5071585;28;20029;-72
2023/02/08 09:16:08;;;;;;;22.97;11.67;;;;;;;-145.18;100.00;60484.78;5071547;28;20035;-72
2023/02/08 09:18:34;;;;;;;25.47;13.93;;;;;;;-145.18;100.00;60484.78;5069178;28;20036;-72
2023/02/08 09:21:10;;;;;;;27.97;14.33;;;;;;;-145.18;100.00;60484.78;5070861;28;20090;-72
2023/02/08 09:23:36;;;;;;;27.27;14.63;;;;;;;-145.18;100.00;60484.78;5052150;28;20044;-71
2023/02/08 09:26:07;;;;;;;27.83;14.63;;;;;;;-145.18;100.00;60484.78;5071759;28;20436;-72
2023/02/08 09:28:33;;;;;;;25.20;12.60;;;;;;;-145.18;100.00;60484.78;5069564;28;20020;-72
2023/02/08 09:31:09;;;;;;;29.00;14.63;;;;;;;-145.18;100.00;60484.78;5071523;28;20450;-72
2023/02/08 09:33:34;;;;;;;22.00;12.00;;;;;;;-145.18;100.00;60484.78;5070781;28;20032;-72
2023/02/08 09:36:00;;;;;;;28.80;13.63;;;;;;;-145.18;100.00;60484.78;5071582;28;20067;-73
2023/02/08 09:38:26;;;;;;;22.87;11.93;;;;;;;-145.18;100.00;60484.78;5069885;28;20036;-71
2023/02/08 09:41:07;;;;;;;29.60;14.20;;;;;;;-145.18;100.00;60484.78;5071576;28;20028;-72
2023/02/08 09:43:47;;;;;;;28.88;13.75;;;;;;;-145.18;100.00;60484.78;5071679;28;20475;-71
2023/02/08 09:46:20;;;;;;;25.97;11.20;;;;;;;-145.18;100.00;60484.78;5064491;28;20040;-72
2023/02/08 09:48:49;;;;;;;24.90;13.00;;;;;;;-145.18;100.00;60484.78;5074676;28;20036;-71
2023/02/08 09:51:31;;;;;;;24.40;13.00;;;;;;;-145.18;100.00;60484.78;5075880;28;20161;-71
2023/02/08 09:54:15;;;;;;;;;;;;;;;-145.18;100.00;60484.78;5074558;28;20021;-72
2023/02/08 09:56:42;;;;;;;23.80;11.80;;;;;;;-145.18;100.00;60484.78;5057914;28;19963;-71
2023/02/08 09:59:36;;;;;;;26.47;12.77;;;;;;;-145.18;100.00;60484.78;5075236;28;20020;-71
2023/02/08 10:02:24;;;;;;;19.40;9.23;;;;;;;-145.18;100.00;60484.78;5070229;28;20064;-72
2023/02/08 10:05:04;;;;;;;20.40;9.13;;;;;;;-145.18;100.00;60484.78;5072473;28;20074;-72
2023/02/08 10:07:30;;;;;;;23.60;10.97;;;;;;;-145.18;100.00;60484.78;5070984;28;20028;-72
2023/02/08 10:10:02;;;;;;;26.67;12.73;;;;;;;-145.18;100.00;60484.78;5074155;28;20040;-72
2023/02/08 10:12:50;;;;;;;26.07;11.70;;;;;;;-145.18;100.00;60484.78;5074798;28;20024;-72
2023/02/08 10:15:15;;;;;;;24.07;11.03;;;;;;;-145.18;100.00;60484.78;5074670;28;20036;-72
2023/02/08 10:18:05;;;;;;;25.60;11.50;;;;;;;-145.18;100.00;60484.78;5075057;28;20486;-72
2023/02/08 10:20:44;;;;;;;23.07;11.07;;;;;;;-145.18;100.00;60484.78;5075066;28;20458;-72
2023/02/08 10:23:40;;;;;;;22.33;10.80;;;;;;;-145.18;100.00;60484.78;5073676;28;20158;-74
2023/02/08 10:26:23;;;;;;;21.83;9.60;;;;;;;-145.18;100.00;60484.78;5054779;28;20031;-73
2023/02/08 10:29:25;;;;;;;21.20;10.00;;;;;;;-145.18;100.00;60484.78;5054674;28;20496;-73
2023/02/08 10:31:53;;;;;;;20.35;11.15;;;;;;;-145.18;100.00;60484.78;5055023;28;20415;-72
2023/02/08 10:34:49;;;;;;;23.27;12.13;;;;;;;-145.18;100.00;60484.78;5054506;28;20079;-73
2023/02/08 10:37:20;;;;;;;19.50;7.70;;;;;;;-145.18;100.00;60484.78;5054719;28;20535;-73
2023/02/08 10:39:48;;;;;;;22.77;10.25;;;;;;;-145.18;100.00;60484.78;5070637;28;20032;-75
2023/02/08 10:42:21;;;;;;;21.93;10.73;;;;;;;-145.18;100.00;60484.78;5074483;28;20487;-73
2023/02/08 10:45:25;;;;;;;20.57;11.70;;;;;;;-145.18;100.00;60484.78;5072584;28;20039;-72
2023/02/08 10:47:57;;;;;;;21.80;9.57;;;;;;;-145.18;100.00;60484.78;5074531;28;20082;-72
2023/02/08 10:50:35;;;;;;;21.93;9.67;;;;;;;-145.18;100.00;60484.78;5074474;28;20384;-73
2023/02/08 10:53:00;;;;;;;18.50;9.57;;;;;;;-145.18;100.00;60484.78;5073484;28;20499;-72
2023/02/08 10:55:26;;;;;;;15.17;6.97;;;;;;;-145.18;100.00;60484.78;5071770;28;20017;-72
2023/02/08 10:57:57;;;;;;;21.27;9.80;;;;;;;-145.18;100.00;60484.78;5073649;28;20020;-73
2023/02/08 11:00:28;;;;;;;20.75;9.73;;;;;;;-145.18;100.00;60484.78;5056264;28;20025;-73
2023/02/08 11:02:55;;;;;;;18.00;9.57;;;;;;;-145.18;100.00;60484.78;5072877;28;20039;-73